sensor_id;sensor_type;location;lat;lon;timestamp;P1;durP1;ratioP1;P2;durP2;ratioP2
7475;SDS011;3779;49.216;8.650;2022-12-10T00:02:27;13.47;;;11.47;;
7475;SDS011;3779;49.216;8.650;2022-12-10T00:05:14;11.30;;;10.20;;
7475;SDS011;3779;49.216;8.650;2022-12-10T00:08:01;11.20;;;10.20;;
7475;SDS011;3779;49.216;8.650;2022-12-10T00:10:47;11.50;;;10.30;;
7475;SDS011;3779;49.216;8.650;2022-12-10T00:13:33;11.83;;;10.60;;
7475;SDS011;3779;49.216;8.650;2022-12-10T00:16:22;11.77;;;10.57;;
7475;SDS011;3779;49.216;8.650;2022-12-10T00:19:10;12.83;;;11.53;;
7475;SDS011;3779;49.216;8.650;2022-12-10T00:21:56;12.80;;;11.50;;
7475;SDS011;3779;49.216;8.650;2022-12-10T00:24:42;11.43;;;10.33;;
7475;SDS011;3779;49.216;8.650;2022-12-10T00:27:27;11.27;;;10.07;;
7475;SDS011;3779;49.216;8.650;2022-12-10T00:30:14;10.67;;;9.67;;
7475;SDS011;3779;49.216;8.650;2022-12-10T00:33:00;11.50;;;10.40;;
7475;SDS011;3779;49.216;8.650;2022-12-10T00:35:46;10.27;;;9.30;;
7475;SDS011;3779;49.216;8.650;2022-12-10T00:38:31;10.30;;;9.30;;
7475;SDS011;3779;49.216;8.650;2022-12-10T00:41:18;9.70;;;8.80;;
7475;SDS011;3779;49.216;8.650;2022-12-10T00:44:04;11.17;;;10.17;;
7475;SDS011;3779;49.216;8.650;2022-12-10T00:46:50;11.30;;;10.20;;
7475;SDS011;3779;49.216;8.650;2022-12-10T00:49:36;11.83;;;10.63;;
7475;SDS011;3779;49.216;8.650;2022-12-10T00:52:22;10.93;;;9.93;;
7475;SDS011;3779;49.216;8.650;2022-12-10T00:55:09;11.17;;;10.03;;
7475;SDS011;3779;49.216;8.650;2022-12-10T00:57:55;11.43;;;10.03;;
7475;SDS011;3779;49.216;8.650;2022-12-10T01:00:41;11.20;;;10.20;;
7475;SDS011;3779;49.216;8.650;2022-12-10T01:03:26;11.10;;;10.00;;
7475;SDS011;3779;49.216;8.650;2022-12-10T01:06:14;11.53;;;10.33;;
7475;SDS011;3779;49.216;8.650;2022-12-10T01:09:12;11.27;;;10.23;;
7475;SDS011;3779;49.216;8.650;2022-12-10T01:12:00;11.07;;;10.07;;
7475;SDS011;3779;49.216;8.650;2022-12-10T01:14:48;10.67;;;9.63;;
7475;SDS011;3779;49.216;8.650;2022-12-10T01:17:35;11.03;;;9.93;;
7475;SDS011;3779;49.216;8.650;2022-12-10T01:20:21;10.33;;;9.33;;
7475;SDS011;3779;49.216;8.650;2022-12-10T01:23:07;11.20;;;10.20;;
7475;SDS011;3779;49.216;8.650;2022-12-10T01:25:53;11.43;;;10.23;;
7475;SDS011;3779;49.216;8.650;2022-12-10T01:28:39;11.13;;;10.10;;
7475;SDS011;3779;49.216;8.650;2022-12-10T01:31:30;11.93;;;10.37;;
7475;SDS011;3779;49.216;8.650;2022-12-10T01:34:18;11.20;;;10.10;;
7475;SDS011;3779;49.216;8.650;2022-12-10T01:37:04;11.13;;;10.03;;
7475;SDS011;3779;49.216;8.650;2022-12-10T01:39:51;11.27;;;10.07;;
7475;SDS011;3779;49.216;8.650;2022-12-10T01:42:37;10.87;;;9.63;;
7475;SDS011;3779;49.216;8.650;2022-12-10T01:45:23;11.37;;;10.27;;
7475;SDS011;3779;49.216;8.650;2022-12-10T01:48:13;11.23;;;10.13;;
7475;SDS011;3779;49.216;8.650;2022-12-10T01:50:59;10.80;;;9.80;;
7475;SDS011;3779;49.216;8.650;2022-12-10T01:53:45;11.50;;;10.30;;
7475;SDS011;3779;49.216;8.650;2022-12-10T01:56:33;11.10;;;10.00;;
7475;SDS011;3779;49.216;8.650;2022-12-10T01:59:22;11.10;;;10.10;;
7475;SDS011;3779;49.216;8.650;2022-12-10T02:11:03;13.00;;;11.60;;
7475;SDS011;3779;49.216;8.650;2022-12-10T02:17:14;12.17;;;10.80;;
7475;SDS011;3779;49.216;8.650;2022-12-10T02:20:08;11.97;;;10.70;;
7475;SDS011;3779;49.216;8.650;2022-12-10T02:29:19;11.83;;;10.57;;
7475;SDS011;3779;49.216;8.650;2022-12-10T02:32:14;11.67;;;10.67;;
7475;SDS011;3779;49.216;8.650;2022-12-10T02:35:05;12.63;;;11.40;;
7475;SDS011;3779;49.216;8.650;2022-12-10T02:37:59;12.70;;;11.50;;
7475;SDS011;3779;49.216;8.650;2022-12-10T02:41:01;13.17;;;11.73;;
7475;SDS011;3779;49.216;8.650;2022-12-10T02:43:52;13.10;;;11.80;;
7475;SDS011;3779;49.216;8.650;2022-12-10T02:46:39;13.17;;;11.77;;
7475;SDS011;3779;49.216;8.650;2022-12-10T02:49:28;12.60;;;11.40;;
7475;SDS011;3779;49.216;8.650;2022-12-10T02:52:19;11.23;;;10.23;;
7475;SDS011;3779;49.216;8.650;2022-12-10T02:55:12;11.83;;;10.63;;
7475;SDS011;3779;49.216;8.650;2022-12-10T02:58:06;12.07;;;10.87;;
7475;SDS011;3779;49.216;8.650;2022-12-10T03:04:17;12.23;;;11.00;;
7475;SDS011;3779;49.216;8.650;2022-12-10T03:07:27;13.13;;;11.60;;
7475;SDS011;3779;49.216;8.650;2022-12-10T03:10:24;11.20;;;10.20;;
7475;SDS011;3779;49.216;8.650;2022-12-10T03:13:22;11.90;;;10.80;;
7475;SDS011;3779;49.216;8.650;2022-12-10T03:16:14;11.50;;;10.30;;
7475;SDS011;3779;49.216;8.650;2022-12-10T03:19:06;11.57;;;10.37;;
7475;SDS011;3779;49.216;8.650;2022-12-10T03:21:56;11.03;;;9.93;;
7475;SDS011;3779;49.216;8.650;2022-12-10T03:24:43;11.07;;;10.07;;
7475;SDS011;3779;49.216;8.650;2022-12-10T03:27:29;11.10;;;9.93;;
7475;SDS011;3779;49.216;8.650;2022-12-10T03:30:17;11.37;;;10.27;;
7475;SDS011;3779;49.216;8.650;2022-12-10T03:33:03;11.20;;;10.10;;
7475;SDS011;3779;49.216;8.650;2022-12-10T03:35:49;11.40;;;10.00;;
7475;SDS011;3779;49.216;8.650;2022-12-10T03:38:36;11.37;;;10.13;;
7475;SDS011;3779;49.216;8.650;2022-12-10T03:41:23;11.30;;;10.20;;
7475;SDS011;3779;49.216;8.650;2022-12-10T03:44:09;11.20;;;10.13;;
7475;SDS011;3779;49.216;8.650;2022-12-10T03:46:55;11.90;;;10.80;;
7475;SDS011;3779;49.216;8.650;2022-12-10T03:49:41;11.30;;;10.20;;
7475;SDS011;3779;49.216;8.650;2022-12-10T03:52:28;11.80;;;10.40;;
7475;SDS011;3779;49.216;8.650;2022-12-10T03:55:13;11.03;;;10.03;;
7475;SDS011;3779;49.216;8.650;2022-12-10T03:57:59;12.27;;;10.97;;
7475;SDS011;3779;49.216;8.650;2022-12-10T04:00:45;11.40;;;10.40;;
7475;SDS011;3779;49.216;8.650;2022-12-10T04:03:34;11.93;;;10.73;;
7475;SDS011;3779;49.216;8.650;2022-12-10T04:06:21;11.50;;;10.40;;
7475;SDS011;3779;49.216;8.650;2022-12-10T04:09:08;11.70;;;10.60;;
7475;SDS011;3779;49.216;8.650;2022-12-10T04:11:56;11.03;;;10.03;;
7475;SDS011;3779;49.216;8.650;2022-12-10T04:14:43;10.93;;;9.90;;
7475;SDS011;3779;49.216;8.650;2022-12-10T04:17:48;11.87;;;10.67;;
7475;SDS011;3779;49.216;8.650;2022-12-10T04:20:33;10.80;;;9.70;;
7475;SDS011;3779;49.216;8.650;2022-12-10T04:23:38;11.47;;;10.10;;
7475;SDS011;3779;49.216;8.650;2022-12-10T04:26:43;12.67;;;10.60;;
7475;SDS011;3779;49.216;8.650;2022-12-10T04:29:38;11.70;;;10.60;;
7475;SDS011;3779;49.216;8.650;2022-12-10T04:32:25;12.50;;;11.30;;
7475;SDS011;3779;49.216;8.650;2022-12-10T04:35:13;12.23;;;11.07;;
7475;SDS011;3779;49.216;8.650;2022-12-10T04:37:59;11.63;;;10.57;;
7475;SDS011;3779;49.216;8.650;2022-12-10T04:40:45;12.00;;;10.80;;
7475;SDS011;3779;49.216;8.650;2022-12-10T04:43:30;12.97;;;11.67;;
7475;SDS011;3779;49.216;8.650;2022-12-10T04:46:16;11.90;;;10.70;;
7475;SDS011;3779;49.216;8.650;2022-12-10T04:49:03;11.03;;;10.03;;
7475;SDS011;3779;49.216;8.650;2022-12-10T04:51:50;12.40;;;10.10;;
7475;SDS011;3779;49.216;8.650;2022-12-10T04:54:37;11.90;;;10.57;;
7475;SDS011;3779;49.216;8.650;2022-12-10T04:57:24;12.00;;;10.83;;
7475;SDS011;3779;49.216;8.650;2022-12-10T05:00:10;12.30;;;11.20;;
7475;SDS011;3779;49.216;8.650;2022-12-10T05:02:56;12.13;;;10.93;;
7475;SDS011;3779;49.216;8.650;2022-12-10T05:05:42;12.33;;;11.13;;
7475;SDS011;3779;49.216;8.650;2022-12-10T05:08:28;13.43;;;12.13;;
7475;SDS011;3779;49.216;8.650;2022-12-10T05:11:19;11.60;;;10.50;;
7475;SDS011;3779;49.216;8.650;2022-12-10T05:14:06;12.47;;;11.17;;
7475;SDS011;3779;49.216;8.650;2022-12-10T05:16:53;12.50;;;11.30;;
7475;SDS011;3779;49.216;8.650;2022-12-10T05:19:39;11.30;;;10.20;;
7475;SDS011;3779;49.216;8.650;2022-12-10T05:22:25;11.93;;;10.73;;
7475;SDS011;3779;49.216;8.650;2022-12-10T05:25:29;12.67;;;11.50;;
7475;SDS011;3779;49.216;8.650;2022-12-10T05:28:15;12.73;;;11.43;;
7475;SDS011;3779;49.216;8.650;2022-12-10T05:31:01;13.10;;;11.80;;
7475;SDS011;3779;49.216;8.650;2022-12-10T05:33:48;13.60;;;12.20;;
7475;SDS011;3779;49.216;8.650;2022-12-10T05:36:34;12.67;;;11.57;;
7475;SDS011;3779;49.216;8.650;2022-12-10T05:39:20;12.73;;;11.47;;
7475;SDS011;3779;49.216;8.650;2022-12-10T05:42:06;13.30;;;12.10;;
7475;SDS011;3779;49.216;8.650;2022-12-10T05:44:52;14.30;;;12.90;;
7475;SDS011;3779;49.216;8.650;2022-12-10T05:47:38;13.70;;;12.40;;
7475;SDS011;3779;49.216;8.650;2022-12-10T05:50:24;13.83;;;12.53;;
7475;SDS011;3779;49.216;8.650;2022-12-10T05:53:11;14.83;;;13.23;;
7475;SDS011;3779;49.216;8.650;2022-12-10T05:55:59;13.53;;;12.27;;
7475;SDS011;3779;49.216;8.650;2022-12-10T05:58:51;12.83;;;11.53;;
7475;SDS011;3779;49.216;8.650;2022-12-10T06:01:38;12.80;;;11.60;;
7475;SDS011;3779;49.216;8.650;2022-12-10T06:04:25;13.23;;;12.00;;
7475;SDS011;3779;49.216;8.650;2022-12-10T06:07:11;13.53;;;12.23;;
7475;SDS011;3779;49.216;8.650;2022-12-10T06:09:56;12.60;;;11.40;;
7475;SDS011;3779;49.216;8.650;2022-12-10T06:12:42;12.80;;;11.60;;
7475;SDS011;3779;49.216;8.650;2022-12-10T06:15:28;13.23;;;12.00;;
7475;SDS011;3779;49.216;8.650;2022-12-10T06:18:15;14.17;;;12.87;;
7475;SDS011;3779;49.216;8.650;2022-12-10T06:21:08;14.17;;;12.77;;
7475;SDS011;3779;49.216;8.650;2022-12-10T06:23:55;15.13;;;13.57;;
7475;SDS011;3779;49.216;8.650;2022-12-10T06:26:41;14.50;;;13.10;;
7475;SDS011;3779;49.216;8.650;2022-12-10T06:29:27;13.97;;;12.53;;
7475;SDS011;3779;49.216;8.650;2022-12-10T06:32:13;13.60;;;12.30;;
7475;SDS011;3779;49.216;8.650;2022-12-10T06:34:59;14.13;;;12.67;;
7475;SDS011;3779;49.216;8.650;2022-12-10T06:37:45;14.80;;;13.40;;
7475;SDS011;3779;49.216;8.650;2022-12-10T06:40:31;15.20;;;13.70;;
7475;SDS011;3779;49.216;8.650;2022-12-10T06:43:17;13.73;;;12.40;;
7475;SDS011;3779;49.216;8.650;2022-12-10T06:46:04;14.83;;;13.43;;
7475;SDS011;3779;49.216;8.650;2022-12-10T06:48:53;14.93;;;13.40;;
7475;SDS011;3779;49.216;8.650;2022-12-10T06:51:39;14.40;;;13.00;;
7475;SDS011;3779;49.216;8.650;2022-12-10T06:54:25;14.50;;;13.03;;
7475;SDS011;3779;49.216;8.650;2022-12-10T06:57:11;14.63;;;13.23;;
7475;SDS011;3779;49.216;8.650;2022-12-10T06:59:57;15.53;;;14.03;;
7475;SDS011;3779;49.216;8.650;2022-12-10T07:02:43;15.40;;;13.87;;
7475;SDS011;3779;49.216;8.650;2022-12-10T07:05:29;15.10;;;13.60;;
7475;SDS011;3779;49.216;8.650;2022-12-10T07:08:15;15.00;;;13.50;;
7475;SDS011;3779;49.216;8.650;2022-12-10T07:11:06;14.63;;;13.13;;
7475;SDS011;3779;49.216;8.650;2022-12-10T07:13:53;14.20;;;12.83;;
7475;SDS011;3779;49.216;8.650;2022-12-10T07:16:39;15.10;;;13.57;;
7475;SDS011;3779;49.216;8.650;2022-12-10T07:19:26;14.97;;;13.50;;
7475;SDS011;3779;49.216;8.650;2022-12-10T07:22:11;16.80;;;15.20;;
7475;SDS011;3779;49.216;8.650;2022-12-10T07:24:57;15.47;;;13.97;;
7475;SDS011;3779;49.216;8.650;2022-12-10T07:27:43;17.70;;;15.90;;
7475;SDS011;3779;49.216;8.650;2022-12-10T07:30:29;14.67;;;13.17;;
7475;SDS011;3779;49.216;8.650;2022-12-10T07:33:15;15.80;;;14.17;;
7475;SDS011;3779;49.216;8.650;2022-12-10T07:36:04;22.87;;;20.57;;
7475;SDS011;3779;49.216;8.650;2022-12-10T07:38:51;16.20;;;14.60;;
7475;SDS011;3779;49.216;8.650;2022-12-10T07:41:38;30.00;;;26.93;;
7475;SDS011;3779;49.216;8.650;2022-12-10T07:44:24;16.40;;;14.83;;
7475;SDS011;3779;49.216;8.650;2022-12-10T07:47:11;15.23;;;13.73;;
7475;SDS011;3779;49.216;8.650;2022-12-10T07:49:57;15.50;;;13.97;;
7475;SDS011;3779;49.216;8.650;2022-12-10T07:52:42;16.63;;;15.10;;
7475;SDS011;3779;49.216;8.650;2022-12-10T07:55:28;15.50;;;14.00;;
7475;SDS011;3779;49.216;8.650;2022-12-10T07:58:15;14.83;;;13.40;;
7475;SDS011;3779;49.216;8.650;2022-12-10T08:01:13;15.80;;;14.10;;
7475;SDS011;3779;49.216;8.650;2022-12-10T08:04:01;14.57;;;12.93;;
7475;SDS011;3779;49.216;8.650;2022-12-10T08:06:48;14.83;;;13.37;;
7475;SDS011;3779;49.216;8.650;2022-12-10T08:09:34;15.27;;;13.77;;
7475;SDS011;3779;49.216;8.650;2022-12-10T08:12:20;15.13;;;13.63;;
7475;SDS011;3779;49.216;8.650;2022-12-10T08:15:06;15.53;;;14.00;;
7475;SDS011;3779;49.216;8.650;2022-12-10T08:17:52;14.33;;;12.83;;
7475;SDS011;3779;49.216;8.650;2022-12-10T08:20:38;14.10;;;12.70;;
7475;SDS011;3779;49.216;8.650;2022-12-10T08:23:24;15.00;;;13.43;;
7475;SDS011;3779;49.216;8.650;2022-12-10T08:26:10;14.77;;;13.23;;
7475;SDS011;3779;49.216;8.650;2022-12-10T08:28:59;15.33;;;13.93;;
7475;SDS011;3779;49.216;8.650;2022-12-10T08:31:45;13.77;;;12.37;;
7475;SDS011;3779;49.216;8.650;2022-12-10T08:34:31;16.03;;;14.37;;
7475;SDS011;3779;49.216;8.650;2022-12-10T08:37:17;13.27;;;11.97;;
7475;SDS011;3779;49.216;8.650;2022-12-10T08:40:03;15.33;;;13.83;;
7475;SDS011;3779;49.216;8.650;2022-12-10T08:42:51;16.00;;;14.37;;
7475;SDS011;3779;49.216;8.650;2022-12-10T08:45:37;10.17;;;9.17;;
7475;SDS011;3779;49.216;8.650;2022-12-10T08:48:23;13.80;;;12.43;;
7475;SDS011;3779;49.216;8.650;2022-12-10T08:51:11;14.50;;;13.10;;
7475;SDS011;3779;49.216;8.650;2022-12-10T08:53:59;14.77;;;13.27;;
7475;SDS011;3779;49.216;8.650;2022-12-10T08:56:45;13.87;;;12.50;;
7475;SDS011;3779;49.216;8.650;2022-12-10T08:59:31;13.60;;;12.30;;
7475;SDS011;3779;49.216;8.650;2022-12-10T09:02:17;14.73;;;13.20;;
7475;SDS011;3779;49.216;8.650;2022-12-10T09:05:05;13.73;;;12.53;;
7475;SDS011;3779;49.216;8.650;2022-12-10T09:07:51;14.63;;;13.23;;
7475;SDS011;3779;49.216;8.650;2022-12-10T09:10:37;14.13;;;12.67;;
7475;SDS011;3779;49.216;8.650;2022-12-10T09:13:24;15.43;;;13.93;;
7475;SDS011;3779;49.216;8.650;2022-12-10T09:16:11;14.20;;;12.70;;
7475;SDS011;3779;49.216;8.650;2022-12-10T09:18:57;13.57;;;12.27;;
7475;SDS011;3779;49.216;8.650;2022-12-10T09:21:44;11.50;;;10.43;;
7475;SDS011;3779;49.216;8.650;2022-12-10T09:24:30;14.53;;;12.83;;
7475;SDS011;3779;49.216;8.650;2022-12-10T09:27:16;14.40;;;12.90;;
7475;SDS011;3779;49.216;8.650;2022-12-10T09:30:03;14.17;;;12.77;;
7475;SDS011;3779;49.216;8.650;2022-12-10T09:32:50;13.87;;;12.47;;
7475;SDS011;3779;49.216;8.650;2022-12-10T09:35:39;13.63;;;12.43;;
7475;SDS011;3779;49.216;8.650;2022-12-10T09:38:25;13.70;;;12.40;;
7475;SDS011;3779;49.216;8.650;2022-12-10T09:44:27;14.80;;;13.33;;
7475;SDS011;3779;49.216;8.650;2022-12-10T09:47:33;15.13;;;13.73;;
7475;SDS011;3779;49.216;8.650;2022-12-10T09:53:30;13.33;;;12.07;;
7475;SDS011;3779;49.216;8.650;2022-12-10T09:56:21;13.63;;;12.33;;
7475;SDS011;3779;49.216;8.650;2022-12-10T09:59:20;13.10;;;11.77;;
7475;SDS011;3779;49.216;8.650;2022-12-10T10:02:23;14.33;;;12.93;;
7475;SDS011;3779;49.216;8.650;2022-12-10T10:05:20;13.77;;;12.47;;
7475;SDS011;3779;49.216;8.650;2022-12-10T10:08:14;14.17;;;12.77;;
7475;SDS011;3779;49.216;8.650;2022-12-10T10:11:02;13.30;;;11.90;;
7475;SDS011;3779;49.216;8.650;2022-12-10T10:13:53;14.50;;;13.10;;
7475;SDS011;3779;49.216;8.650;2022-12-10T10:16:47;14.53;;;13.13;;
7475;SDS011;3779;49.216;8.650;2022-12-10T10:19:37;13.63;;;12.33;;
7475;SDS011;3779;49.216;8.650;2022-12-10T10:22:24;13.73;;;12.43;;
7475;SDS011;3779;49.216;8.650;2022-12-10T10:25:15;14.23;;;12.83;;
7475;SDS011;3779;49.216;8.650;2022-12-10T10:28:03;16.27;;;13.03;;
7475;SDS011;3779;49.216;8.650;2022-12-10T10:30:50;13.40;;;12.10;;
7475;SDS011;3779;49.216;8.650;2022-12-10T10:33:49;13.17;;;11.77;;
7475;SDS011;3779;49.216;8.650;2022-12-10T10:36:46;13.87;;;12.47;;
7475;SDS011;3779;49.216;8.650;2022-12-10T10:39:35;8.73;;;7.20;;
7475;SDS011;3779;49.216;8.650;2022-12-10T10:42:42;14.50;;;13.10;;
7475;SDS011;3779;49.216;8.650;2022-12-10T10:45:41;14.80;;;13.40;;
7475;SDS011;3779;49.216;8.650;2022-12-10T10:48:32;14.43;;;13.03;;
7475;SDS011;3779;49.216;8.650;2022-12-10T10:51:22;8.57;;;7.77;;
7475;SDS011;3779;49.216;8.650;2022-12-10T10:54:11;14.90;;;13.43;;
7475;SDS011;3779;49.216;8.650;2022-12-10T10:56:57;14.67;;;13.13;;
7475;SDS011;3779;49.216;8.650;2022-12-10T10:59:46;9.17;;;8.23;;
7475;SDS011;3779;49.216;8.650;2022-12-10T11:02:35;13.40;;;11.60;;
7475;SDS011;3779;49.216;8.650;2022-12-10T11:05:26;13.67;;;12.37;;
7475;SDS011;3779;49.216;8.650;2022-12-10T11:08:17;13.70;;;12.40;;
7475;SDS011;3779;49.216;8.650;2022-12-10T11:11:07;13.40;;;12.00;;
7475;SDS011;3779;49.216;8.650;2022-12-10T11:14:15;13.33;;;12.03;;
7475;SDS011;3779;49.216;8.650;2022-12-10T11:17:31;9.43;;;8.20;;
7475;SDS011;3779;49.216;8.650;2022-12-10T11:20:18;13.37;;;12.03;;
7475;SDS011;3779;49.216;8.650;2022-12-10T11:23:10;9.00;;;8.07;;
7475;SDS011;3779;49.216;8.650;2022-12-10T11:41:35;13.60;;;12.30;;
7475;SDS011;3779;49.216;8.650;2022-12-10T11:44:40;13.07;;;11.70;;
7475;SDS011;3779;49.216;8.650;2022-12-10T11:50:59;11.87;;;10.77;;
7475;SDS011;3779;49.216;8.650;2022-12-10T11:57:49;10.33;;;9.23;;
7475;SDS011;3779;49.216;8.650;2022-12-10T12:00:21;10.10;;;9.17;;
7475;SDS011;3779;49.216;8.650;2022-12-10T12:09:20;8.63;;;7.43;;
7475;SDS011;3779;49.216;8.650;2022-12-10T12:15:26;12.10;;;10.90;;
7475;SDS011;3779;49.216;8.650;2022-12-10T12:21:14;10.97;;;9.87;;
7475;SDS011;3779;49.216;8.650;2022-12-10T12:24:03;11.73;;;10.67;;
7475;SDS011;3779;49.216;8.650;2022-12-10T12:30:03;10.43;;;9.43;;
7475;SDS011;3779;49.216;8.650;2022-12-10T12:32:58;8.87;;;7.23;;
7475;SDS011;3779;49.216;8.650;2022-12-10T12:36:06;10.27;;;9.37;;
7475;SDS011;3779;49.216;8.650;2022-12-10T12:42:48;11.17;;;10.13;;
7475;SDS011;3779;49.216;8.650;2022-12-10T12:45:43;9.63;;;8.77;;
7475;SDS011;3779;49.216;8.650;2022-12-10T12:48:35;8.33;;;7.53;;
7475;SDS011;3779;49.216;8.650;2022-12-10T12:51:29;10.67;;;9.67;;
7475;SDS011;3779;49.216;8.650;2022-12-10T12:54:21;6.90;;;6.13;;
7475;SDS011;3779;49.216;8.650;2022-12-10T12:57:13;9.77;;;8.87;;
7475;SDS011;3779;49.216;8.650;2022-12-10T13:00:15;10.43;;;9.43;;
7475;SDS011;3779;49.216;8.650;2022-12-10T13:06:11;11.40;;;10.30;;
7475;SDS011;3779;49.216;8.650;2022-12-10T13:17:38;9.47;;;8.63;;
7475;SDS011;3779;49.216;8.650;2022-12-10T13:26:26;9.37;;;8.37;;
7475;SDS011;3779;49.216;8.650;2022-12-10T13:29:24;9.57;;;8.67;;
7475;SDS011;3779;49.216;8.650;2022-12-10T13:35:22;7.60;;;6.83;;
7475;SDS011;3779;49.216;8.650;2022-12-10T13:38:19;8.03;;;7.33;;
7475;SDS011;3779;49.216;8.650;2022-12-10T13:41:08;6.47;;;5.87;;
7475;SDS011;3779;49.216;8.650;2022-12-10T13:45:03;9.20;;;8.00;;
7475;SDS011;3779;49.216;8.650;2022-12-10T13:50:32;5.07;;;4.57;;
7475;SDS011;3779;49.216;8.650;2022-12-10T13:59:38;8.47;;;7.67;;
7475;SDS011;3779;49.216;8.650;2022-12-10T14:02:35;8.90;;;8.10;;
7475;SDS011;3779;49.216;8.650;2022-12-10T14:09:13;8.97;;;8.17;;
7475;SDS011;3779;49.216;8.650;2022-12-10T14:12:10;9.37;;;8.43;;
7475;SDS011;3779;49.216;8.650;2022-12-10T14:15:06;9.43;;;8.57;;
7475;SDS011;3779;49.216;8.650;2022-12-10T14:18:03;10.37;;;9.37;;
7475;SDS011;3779;49.216;8.650;2022-12-10T14:20:57;10.40;;;9.50;;
7475;SDS011;3779;49.216;8.650;2022-12-10T14:23:48;9.20;;;8.30;;
7475;SDS011;3779;49.216;8.650;2022-12-10T14:26:35;8.80;;;7.90;;
7475;SDS011;3779;49.216;8.650;2022-12-10T14:29:21;8.67;;;7.87;;
7475;SDS011;3779;49.216;8.650;2022-12-10T14:32:12;9.23;;;8.33;;
7475;SDS011;3779;49.216;8.650;2022-12-10T14:35:00;9.17;;;8.37;;
7475;SDS011;3779;49.216;8.650;2022-12-10T14:37:49;8.77;;;7.97;;
7475;SDS011;3779;49.216;8.650;2022-12-10T14:40:39;9.23;;;8.33;;
7475;SDS011;3779;49.216;8.650;2022-12-10T14:43:35;9.30;;;8.40;;
7475;SDS011;3779;49.216;8.650;2022-12-10T14:46:24;9.20;;;8.40;;
7475;SDS011;3779;49.216;8.650;2022-12-10T14:49:16;8.60;;;7.77;;
7475;SDS011;3779;49.216;8.650;2022-12-10T14:52:13;7.27;;;6.60;;
7475;SDS011;3779;49.216;8.650;2022-12-10T14:55:12;9.63;;;8.73;;
7475;SDS011;3779;49.216;8.650;2022-12-10T14:58:03;8.07;;;7.37;;
7475;SDS011;3779;49.216;8.650;2022-12-10T15:00:51;9.13;;;8.23;;
7475;SDS011;3779;49.216;8.650;2022-12-10T15:03:39;9.30;;;8.40;;
7475;SDS011;3779;49.216;8.650;2022-12-10T15:06:35;9.60;;;8.67;;
7475;SDS011;3779;49.216;8.650;2022-12-10T15:09:23;10.27;;;9.37;;
7475;SDS011;3779;49.216;8.650;2022-12-10T15:12:25;8.97;;;8.10;;
7475;SDS011;3779;49.216;8.650;2022-12-10T15:18:31;8.13;;;7.43;;
7475;SDS011;3779;49.216;8.650;2022-12-10T15:21:19;8.23;;;7.50;;
7475;SDS011;3779;49.216;8.650;2022-12-10T15:24:18;9.57;;;8.67;;
7475;SDS011;3779;49.216;8.650;2022-12-10T15:27:16;8.67;;;7.87;;
7475;SDS011;3779;49.216;8.650;2022-12-10T15:30:21;9.00;;;8.20;;
7475;SDS011;3779;49.216;8.650;2022-12-10T15:33:21;9.23;;;8.40;;
7475;SDS011;3779;49.216;8.650;2022-12-10T15:36:19;10.30;;;8.70;;
7475;SDS011;3779;49.216;8.650;2022-12-10T15:39:12;11.17;;;9.03;;
7475;SDS011;3779;49.216;8.650;2022-12-10T15:42:06;10.80;;;8.83;;
7475;SDS011;3779;49.216;8.650;2022-12-10T15:44:58;9.70;;;8.80;;
7475;SDS011;3779;49.216;8.650;2022-12-10T15:47:49;9.37;;;8.47;;
7475;SDS011;3779;49.216;8.650;2022-12-10T15:50:36;10.13;;;9.23;;
7475;SDS011;3779;49.216;8.650;2022-12-10T15:53:26;9.30;;;8.40;;
7475;SDS011;3779;49.216;8.650;2022-12-10T15:56:19;10.30;;;9.40;;
7475;SDS011;3779;49.216;8.650;2022-12-10T15:59:05;9.30;;;8.50;;
7475;SDS011;3779;49.216;8.650;2022-12-10T16:01:51;9.83;;;8.93;;
7475;SDS011;3779;49.216;8.650;2022-12-10T16:04:37;9.50;;;8.53;;
7475;SDS011;3779;49.216;8.650;2022-12-10T16:07:23;10.43;;;9.03;;
7475;SDS011;3779;49.216;8.650;2022-12-10T16:10:09;10.37;;;9.37;;
7475;SDS011;3779;49.216;8.650;2022-12-10T16:13:03;9.63;;;8.73;;
7475;SDS011;3779;49.216;8.650;2022-12-10T16:15:59;9.73;;;8.93;;
7475;SDS011;3779;49.216;8.650;2022-12-10T16:18:49;10.17;;;9.17;;
7475;SDS011;3779;49.216;8.650;2022-12-10T16:21:35;8.37;;;7.57;;
7475;SDS011;3779;49.216;8.650;2022-12-10T16:24:21;9.97;;;9.07;;
7475;SDS011;3779;49.216;8.650;2022-12-10T16:27:14;10.17;;;9.17;;
7475;SDS011;3779;49.216;8.650;2022-12-10T16:30:01;10.40;;;9.50;;
7475;SDS011;3779;49.216;8.650;2022-12-10T16:32:47;10.63;;;8.93;;
7475;SDS011;3779;49.216;8.650;2022-12-10T16:35:33;9.23;;;8.43;;
7475;SDS011;3779;49.216;8.650;2022-12-10T16:38:19;10.53;;;9.60;;
7475;SDS011;3779;49.216;8.650;2022-12-10T16:41:11;9.77;;;8.87;;
7475;SDS011;3779;49.216;8.650;2022-12-10T16:44:04;10.27;;;9.33;;
7475;SDS011;3779;49.216;8.650;2022-12-10T16:46:50;9.93;;;9.03;;
7475;SDS011;3779;49.216;8.650;2022-12-10T16:49:36;11.67;;;10.30;;
7475;SDS011;3779;49.216;8.650;2022-12-10T16:52:22;11.47;;;10.37;;
7475;SDS011;3779;49.216;8.650;2022-12-10T16:55:18;11.73;;;10.67;;
7475;SDS011;3779;49.216;8.650;2022-12-10T16:58:08;11.50;;;10.50;;
7475;SDS011;3779;49.216;8.650;2022-12-10T17:00:55;12.13;;;11.03;;
7475;SDS011;3779;49.216;8.650;2022-12-10T17:03:41;11.23;;;10.13;;
7475;SDS011;3779;49.216;8.650;2022-12-10T17:06:27;12.37;;;11.07;;
7475;SDS011;3779;49.216;8.650;2022-12-10T17:09:13;11.87;;;10.77;;
7475;SDS011;3779;49.216;8.650;2022-12-10T17:12:00;10.90;;;9.90;;
7475;SDS011;3779;49.216;8.650;2022-12-10T17:14:45;12.07;;;10.87;;
7475;SDS011;3779;49.216;8.650;2022-12-10T17:17:32;11.73;;;10.63;;
7475;SDS011;3779;49.216;8.650;2022-12-10T17:20:18;12.17;;;10.97;;
7475;SDS011;3779;49.216;8.650;2022-12-10T17:23:06;11.50;;;10.37;;
7475;SDS011;3779;49.216;8.650;2022-12-10T17:25:52;12.20;;;11.00;;
7475;SDS011;3779;49.216;8.650;2022-12-10T17:28:39;12.00;;;10.90;;
7475;SDS011;3779;49.216;8.650;2022-12-10T17:31:24;17.03;;;15.33;;
7475;SDS011;3779;49.216;8.650;2022-12-10T17:34:11;15.47;;;13.87;;
7475;SDS011;3779;49.216;8.650;2022-12-10T17:36:57;12.73;;;11.53;;
7475;SDS011;3779;49.216;8.650;2022-12-10T17:39:44;12.67;;;11.37;;
7475;SDS011;3779;49.216;8.650;2022-12-10T17:42:30;12.70;;;11.50;;
7475;SDS011;3779;49.216;8.650;2022-12-10T17:45:17;11.57;;;10.43;;
7475;SDS011;3779;49.216;8.650;2022-12-10T17:48:04;11.03;;;10.13;;
7475;SDS011;3779;49.216;8.650;2022-12-10T17:50:51;12.40;;;11.30;;
7475;SDS011;3779;49.216;8.650;2022-12-10T17:53:37;16.57;;;14.97;;
7475;SDS011;3779;49.216;8.650;2022-12-10T17:56:24;19.00;;;17.10;;
7475;SDS011;3779;49.216;8.650;2022-12-10T17:59:14;18.13;;;16.43;;
7475;SDS011;3779;49.216;8.650;2022-12-10T18:02:00;17.53;;;15.90;;
7475;SDS011;3779;49.216;8.650;2022-12-10T18:04:46;15.60;;;14.17;;
7475;SDS011;3779;49.216;8.650;2022-12-10T18:07:32;13.17;;;11.97;;
7475;SDS011;3779;49.216;8.650;2022-12-10T18:10:20;11.87;;;10.57;;
7475;SDS011;3779;49.216;8.650;2022-12-10T18:13:08;10.90;;;9.90;;
7475;SDS011;3779;49.216;8.650;2022-12-10T18:15:54;11.40;;;10.37;;
7475;SDS011;3779;49.216;8.650;2022-12-10T18:18:40;11.23;;;10.23;;
7475;SDS011;3779;49.216;8.650;2022-12-10T18:21:26;11.57;;;10.10;;
7475;SDS011;3779;49.216;8.650;2022-12-10T18:24:13;11.67;;;10.50;;
7475;SDS011;3779;49.216;8.650;2022-12-10T18:26:59;11.00;;;9.90;;
7475;SDS011;3779;49.216;8.650;2022-12-10T18:29:46;11.77;;;10.67;;
7475;SDS011;3779;49.216;8.650;2022-12-10T18:32:33;11.60;;;10.53;;
7475;SDS011;3779;49.216;8.650;2022-12-10T18:35:19;12.80;;;10.90;;
7475;SDS011;3779;49.216;8.650;2022-12-10T18:38:05;12.97;;;11.67;;
7475;SDS011;3779;49.216;8.650;2022-12-10T18:40:51;12.90;;;11.70;;
7475;SDS011;3779;49.216;8.650;2022-12-10T18:43:36;12.70;;;11.40;;
7475;SDS011;3779;49.216;8.650;2022-12-10T18:46:24;12.27;;;11.17;;
7475;SDS011;3779;49.216;8.650;2022-12-10T18:49:11;13.83;;;12.37;;
7475;SDS011;3779;49.216;8.650;2022-12-10T18:51:58;13.27;;;11.97;;
7475;SDS011;3779;49.216;8.650;2022-12-10T18:54:44;13.17;;;11.97;;